createdAt,value
2022-10-03T00:00:11.597Z,19.50
2022-10-03T00:04:43.746Z,19.50
2022-10-03T00:08:55.586Z,19.40
2022-10-03T00:13:19.882Z,19.40
2022-10-03T00:17:31.719Z,19.30
2022-10-03T00:22:01.826Z,19.20
2022-10-03T00:26:27.329Z,19.10
2022-10-03T00:30:42.736Z,19.00
2022-10-03T00:34:51.194Z,18.90
2022-10-03T00:39:12.117Z,18.90
2022-10-03T00:43:56.435Z,18.90
2022-10-03T00:48:20.472Z,19.00
2022-10-03T00:52:45.334Z,18.90
2022-10-03T00:56:57.831Z,19.00
2022-10-03T01:01:20.743Z,19.00
2022-10-03T01:05:41.269Z,19.00
2022-10-03T01:09:56.028Z,18.90
2022-10-03T01:14:27.263Z,18.80
2022-10-03T01:18:45.637Z,18.80
2022-10-03T01:23:12.402Z,18.80
2022-10-03T01:27:26.686Z,18.80
2022-10-03T01:31:57.399Z,18.80
2022-10-03T01:36:12.118Z,18.80
2022-10-03T01:40:40.897Z,18.70
2022-10-03T01:45:08.809Z,18.50
2022-10-03T01:49:19.861Z,18.50
2022-10-03T01:54:13.541Z,18.40
2022-10-03T01:58:56.754Z,18.30
2022-10-03T02:03:14.563Z,18.10
2022-10-03T02:07:49.189Z,17.90
2022-10-03T02:11:52.238Z,18.00
2022-10-03T02:16:21.324Z,18.00
2022-10-03T02:20:43.354Z,18.10
2022-10-03T02:24:57.442Z,18.10
2022-10-03T02:29:13.798Z,18.00
2022-10-03T02:33:37.964Z,18.10
2022-10-03T02:38:15.582Z,18.10
2022-10-03T02:42:45.828Z,18.10
2022-10-03T02:47:00.873Z,18.00
2022-10-03T02:51:37.017Z,18.00
2022-10-03T02:55:42.818Z,18.10
2022-10-03T03:00:09.509Z,18.00
2022-10-03T03:04:21.167Z,17.90
2022-10-03T03:08:24.841Z,17.80
2022-10-03T03:12:51.641Z,17.80
2022-10-03T03:17:19.440Z,17.70
2022-10-03T03:21:53.178Z,17.50
2022-10-03T03:26:18.540Z,17.20
2022-10-03T03:30:25.601Z,17.10
2022-10-03T03:34:49.515Z,16.90
2022-10-03T03:39:18.919Z,16.80
2022-10-03T03:43:44.695Z,16.70
2022-10-03T03:47:59.892Z,16.60
2022-10-03T03:52:35.099Z,16.50
2022-10-03T03:56:43.777Z,16.50
2022-10-03T04:01:21.253Z,16.50
2022-10-03T04:05:50.604Z,16.50
2022-10-03T04:10:27.697Z,16.50
2022-10-03T04:14:58.903Z,16.50
2022-10-03T04:19:12.677Z,16.60
2022-10-03T04:23:34.073Z,16.60
2022-10-03T04:27:44.525Z,16.60
2022-10-03T04:32:22.162Z,16.60
2022-10-03T04:36:43.610Z,16.70
2022-10-03T04:41:12.426Z,16.60
2022-10-03T04:45:28.806Z,16.60
2022-10-03T04:49:42.640Z,16.70
2022-10-03T04:54:06.740Z,16.70
2022-10-03T04:58:30.546Z,16.80
2022-10-03T05:02:58.155Z,16.80
2022-10-03T05:07:19.876Z,16.80
2022-10-03T05:11:59.594Z,16.80
2022-10-03T05:16:14.228Z,16.80
2022-10-03T06:07:31.031Z,16.70
2022-10-03T06:11:40.813Z,16.70
2022-10-03T06:15:55.868Z,16.70
2022-10-03T06:20:47.735Z,16.60
2022-10-03T06:24:58.468Z,16.60
2022-10-03T06:29:36.960Z,16.60
2022-10-03T06:34:02.122Z,16.70
2022-10-03T06:38:15.961Z,17.00
2022-10-03T06:42:31.748Z,17.10
2022-10-03T06:46:59.942Z,17.40
2022-10-03T06:51:40.246Z,17.60
2022-10-03T06:55:50.823Z,17.80
2022-10-03T07:00:17.444Z,18.00
2022-10-03T07:04:55.038Z,18.20
2022-10-03T07:09:36.155Z,18.40
2022-10-03T07:18:37.975Z,18.80
2022-10-03T07:23:09.187Z,19.20
2022-10-03T07:27:33.854Z,19.50
2022-10-03T07:31:40.617Z,19.70
2022-10-03T07:36:51.083Z,19.70
2022-10-03T07:41:06.328Z,19.80
2022-10-03T07:45:52.078Z,19.90
2022-10-03T07:50:18.153Z,20.00
2022-10-03T07:54:37.730Z,20.20
2022-10-03T07:59:25.011Z,20.40
2022-10-03T08:03:46.866Z,20.40
2022-10-03T08:08:37.970Z,20.40
2022-10-03T08:13:31.163Z,20.70
2022-10-03T08:17:57.302Z,20.80
2022-10-03T08:22:09.645Z,21.00
2022-10-03T08:32:26.903Z,21.40
2022-10-03T08:57:30.792Z,22.50
2022-10-03T09:26:19.691Z,22.60
2022-10-03T09:36:25.191Z,23.00
2022-10-03T09:55:02.203Z,23.10
2022-10-03T09:59:41.541Z,23.30
2022-10-03T10:04:55.205Z,23.30
2022-10-03T10:27:42.217Z,24.80
2022-10-03T11:03:01.098Z,26.00
2022-10-03T11:07:38.596Z,25.80
2022-10-03T11:12:17.981Z,25.90
2022-10-03T11:27:09.129Z,26.50
2022-10-03T11:31:29.264Z,26.40
2022-10-03T11:41:20.753Z,26.40
2022-10-03T12:12:00.491Z,26.90
2022-10-03T13:00:36.773Z,26.80
2022-10-03T13:05:06.829Z,26.70
2022-10-03T13:09:28.755Z,26.50
2022-10-03T13:13:57.559Z,26.50
2022-10-03T13:18:44.583Z,26.60
2022-10-03T13:23:33.765Z,26.60
2022-10-03T13:28:05.127Z,26.50
2022-10-03T13:32:46.346Z,26.40
2022-10-03T13:37:39.889Z,26.40
2022-10-03T13:47:23.173Z,26.40
2022-10-03T13:51:53.676Z,26.20
2022-10-03T13:56:41.140Z,26.00
2022-10-03T14:24:56.885Z,26.00
2022-10-03T14:31:05.957Z,26.00
2022-10-03T15:01:48.917Z,26.30
2022-10-03T15:12:21.778Z,26.30
2022-10-03T15:40:09.485Z,26.20
2022-10-03T15:44:47.174Z,26.00
2022-10-03T15:53:36.987Z,25.90
2022-10-03T15:57:48.230Z,25.80
2022-10-03T16:01:54.878Z,25.70
2022-10-03T16:06:48.589Z,25.60
2022-10-03T16:11:15.381Z,25.50
2022-10-03T16:15:18.280Z,25.50
2022-10-03T16:19:58.460Z,25.40
2022-10-03T16:24:07.182Z,25.30
2022-10-03T16:32:39.268Z,24.90
2022-10-03T16:36:50.496Z,24.80
2022-10-03T16:41:33.276Z,24.60
2022-10-03T16:45:42.122Z,24.40
2022-10-03T16:50:15.644Z,24.00
2022-10-03T16:54:20.558Z,23.80
2022-10-03T16:58:33.584Z,23.50
2022-10-03T17:02:39.087Z,23.30
2022-10-03T17:06:48.357Z,23.10
2022-10-03T17:10:58.385Z,22.90
2022-10-03T17:15:09.190Z,22.80
2022-10-03T17:19:34.683Z,22.60
2022-10-03T17:23:50.493Z,22.50
2022-10-03T17:27:55.028Z,22.50
2022-10-03T17:32:37.539Z,22.30
2022-10-03T17:37:07.531Z,22.20
2022-10-03T17:41:18.969Z,22.20
2022-10-03T18:52:41.893Z,21.30
2022-10-03T18:56:48.737Z,21.10
2022-10-03T19:01:06.603Z,21.20
2022-10-03T19:05:28.241Z,21.10
2022-10-03T19:09:40.008Z,21.10
2022-10-03T19:13:54.231Z,21.10
2022-10-03T19:18:21.862Z,21.10
2022-10-03T19:22:34.329Z,21.00
2022-10-03T19:26:38.381Z,21.00
2022-10-03T19:30:43.263Z,21.00
2022-10-03T19:34:48.717Z,21.00
2022-10-03T19:38:54.550Z,20.80
2022-10-03T19:43:05.444Z,20.50
2022-10-03T19:47:22.302Z,20.40
2022-10-03T19:51:27.028Z,20.20
2022-10-03T19:55:32.968Z,20.10
2022-10-03T19:59:58.604Z,20.00
2022-10-03T20:04:01.600Z,20.10
2022-10-03T20:08:30.452Z,20.00
2022-10-03T20:12:40.338Z,19.90
2022-10-03T20:16:49.098Z,19.80
2022-10-03T20:20:54.991Z,19.70
2022-10-03T20:24:59.705Z,19.70
2022-10-03T20:29:14.603Z,19.70
2022-10-03T20:33:23.538Z,19.70
2022-10-03T20:37:39.576Z,19.90
2022-10-03T20:41:42.815Z,20.00
2022-10-03T20:45:59.318Z,19.90
2022-10-03T20:50:43.356Z,20.00
2022-10-03T20:54:57.900Z,20.00
2022-10-03T20:59:05.724Z,20.10
2022-10-03T21:03:17.328Z,20.20
2022-10-03T21:07:32.477Z,20.20
2022-10-03T21:11:39.731Z,20.20
2022-10-03T21:15:47.883Z,20.20
2022-10-03T21:20:03.702Z,20.20
2022-10-03T21:24:11.530Z,20.20
2022-10-03T21:28:32.199Z,20.20
2022-10-03T21:33:03.146Z,20.20
2022-10-03T21:37:28.673Z,20.30
2022-10-03T21:41:47.105Z,20.20
2022-10-03T21:46:27.457Z,20.20
2022-10-03T21:50:36.865Z,20.20
2022-10-03T21:54:48.439Z,20.10
2022-10-03T21:59:19.061Z,20.10
2022-10-03T22:03:25.835Z,20.10
2022-10-03T22:07:42.859Z,20.00
2022-10-03T22:11:53.031Z,20.00
2022-10-03T22:16:30.622Z,20.00
2022-10-03T22:20:35.527Z,20.00
2022-10-03T22:24:48.985Z,19.90
2022-10-03T22:29:04.580Z,19.90
2022-10-03T22:33:23.397Z,19.80
2022-10-03T22:37:27.022Z,19.80
2022-10-03T22:41:31.238Z,19.70
2022-10-03T22:45:40.419Z,19.70
2022-10-03T22:49:47.510Z,19.70
2022-10-03T22:53:58.455Z,19.60
2022-10-03T22:58:02.511Z,19.50
2022-10-03T23:02:09.390Z,19.50
2022-10-03T23:06:38.292Z,19.50
2022-10-03T23:11:01.368Z,19.50
2022-10-03T23:15:06.656Z,19.50
2022-10-03T23:20:06.431Z,19.40
2022-10-03T23:24:39.397Z,19.40
2022-10-03T23:29:00.729Z,19.30
2022-10-03T23:33:03.951Z,19.30
2022-10-03T23:37:15.743Z,19.20
2022-10-03T23:41:38.985Z,19.20
2022-10-03T23:45:43.682Z,19.10
2022-10-03T23:49:48.569Z,19.10
2022-10-03T23:53:54.313Z,19.00
2022-10-03T23:57:57.830Z,19.10
